sensor_id;sensor_type;location;lat;lon;timestamp;P1;durP1;ratioP1;P2;durP2;ratioP2
22184;SDS011;11258;52.516;13.318;2023-03-01T00:01:24;31.03;;;13.93;;
22184;SDS011;11258;52.516;13.318;2023-03-01T00:03:52;25.73;;;13.77;;
22184;SDS011;11258;52.516;13.318;2023-03-01T00:06:19;25.00;;;13.77;;
22184;SDS011;11258;52.516;13.318;2023-03-01T00:08:45;26.40;;;13.33;;
22184;SDS011;11258;52.516;13.318;2023-03-01T00:11:18;26.40;;;13.53;;
22184;SDS011;11258;52.516;13.318;2023-03-01T00:13:45;26.23;;;14.33;;
22184;SDS011;11258;52.516;13.318;2023-03-01T00:16:13;27.17;;;14.23;;
22184;SDS011;11258;52.516;13.318;2023-03-01T00:18:40;22.47;;;14.60;;
22184;SDS011;11258;52.516;13.318;2023-03-01T00:21:06;24.10;;;13.50;;
22184;SDS011;11258;52.516;13.318;2023-03-01T00:23:33;23.87;;;14.00;;
22184;SDS011;11258;52.516;13.318;2023-03-01T00:25:59;28.63;;;14.70;;
22184;SDS011;11258;52.516;13.318;2023-03-01T00:28:25;28.03;;;14.97;;
22184;SDS011;11258;52.516;13.318;2023-03-01T00:30:50;29.43;;;14.50;;
22184;SDS011;11258;52.516;13.318;2023-03-01T00:33:16;28.37;;;16.43;;
22184;SDS011;11258;52.516;13.318;2023-03-01T00:35:42;27.63;;;14.97;;
22184;SDS011;11258;52.516;13.318;2023-03-01T00:38:07;25.57;;;14.27;;
22184;SDS011;11258;52.516;13.318;2023-03-01T00:40:34;26.20;;;15.70;;
22184;SDS011;11258;52.516;13.318;2023-03-01T00:43:00;27.23;;;15.00;;
22184;SDS011;11258;52.516;13.318;2023-03-01T00:45:26;28.87;;;15.87;;
22184;SDS011;11258;52.516;13.318;2023-03-01T00:47:53;28.20;;;15.00;;
22184;SDS011;11258;52.516;13.318;2023-03-01T00:50:19;24.80;;;13.77;;
22184;SDS011;11258;52.516;13.318;2023-03-01T00:52:45;23.93;;;13.33;;
22184;SDS011;11258;52.516;13.318;2023-03-01T00:55:10;23.40;;;14.73;;
22184;SDS011;11258;52.516;13.318;2023-03-01T00:57:37;28.27;;;15.97;;
22184;SDS011;11258;52.516;13.318;2023-03-01T01:00:06;25.77;;;14.43;;
22184;SDS011;11258;52.516;13.318;2023-03-01T01:02:34;26.00;;;14.77;;
22184;SDS011;11258;52.516;13.318;2023-03-01T01:05:00;31.23;;;15.17;;
22184;SDS011;11258;52.516;13.318;2023-03-01T01:07:26;24.83;;;14.97;;
22184;SDS011;11258;52.516;13.318;2023-03-01T01:09:51;25.70;;;14.90;;
22184;SDS011;11258;52.516;13.318;2023-03-01T01:12:17;22.97;;;14.10;;
22184;SDS011;11258;52.516;13.318;2023-03-01T01:14:43;28.90;;;15.63;;
22184;SDS011;11258;52.516;13.318;2023-03-01T01:17:08;24.73;;;14.70;;
22184;SDS011;11258;52.516;13.318;2023-03-01T01:19:34;29.93;;;15.37;;
22184;SDS011;11258;52.516;13.318;2023-03-01T01:22:00;25.33;;;14.73;;
22184;SDS011;11258;52.516;13.318;2023-03-01T01:24:25;22.10;;;14.27;;
22184;SDS011;11258;52.516;13.318;2023-03-01T01:26:51;27.03;;;14.90;;
22184;SDS011;11258;52.516;13.318;2023-03-01T01:29:17;23.30;;;14.30;;
22184;SDS011;11258;52.516;13.318;2023-03-01T01:31:42;24.43;;;14.20;;
22184;SDS011;11258;52.516;13.318;2023-03-01T01:34:11;22.23;;;14.30;;
22184;SDS011;11258;52.516;13.318;2023-03-01T01:36:42;25.43;;;14.80;;
22184;SDS011;11258;52.516;13.318;2023-03-01T01:39:08;22.43;;;14.83;;
22184;SDS011;11258;52.516;13.318;2023-03-01T01:41:38;24.10;;;14.53;;
22184;SDS011;11258;52.516;13.318;2023-03-01T01:44:26;26.80;;;14.37;;
22184;SDS011;11258;52.516;13.318;2023-03-01T01:52:07;23.07;;;13.53;;
22184;SDS011;11258;52.516;13.318;2023-03-01T01:57:18;21.80;;;14.40;;
22184;SDS011;11258;52.516;13.318;2023-03-01T01:59:54;28.10;;;15.70;;
22184;SDS011;11258;52.516;13.318;2023-03-01T02:02:22;23.73;;;14.60;;
22184;SDS011;11258;52.516;13.318;2023-03-01T02:04:49;20.53;;;14.50;;
22184;SDS011;11258;52.516;13.318;2023-03-01T02:07:21;29.30;;;15.30;;
22184;SDS011;11258;52.516;13.318;2023-03-01T02:09:49;22.40;;;13.57;;
22184;SDS011;11258;52.516;13.318;2023-03-01T02:12:18;21.47;;;14.27;;
22184;SDS011;11258;52.516;13.318;2023-03-01T02:14:46;22.20;;;13.20;;
22184;SDS011;11258;52.516;13.318;2023-03-01T02:17:12;27.63;;;14.87;;
22184;SDS011;11258;52.516;13.318;2023-03-01T02:19:54;27.37;;;14.73;;
22184;SDS011;11258;52.516;13.318;2023-03-01T02:22:43;24.83;;;14.70;;
22184;SDS011;11258;52.516;13.318;2023-03-01T02:25:21;27.77;;;14.53;;
22184;SDS011;11258;52.516;13.318;2023-03-01T02:30:41;21.30;;;13.17;;
22184;SDS011;11258;52.516;13.318;2023-03-01T02:33:29;23.53;;;14.60;;
22184;SDS011;11258;52.516;13.318;2023-03-01T02:36:03;24.10;;;13.43;;
22184;SDS011;11258;52.516;13.318;2023-03-01T02:38:33;21.80;;;14.10;;
22184;SDS011;11258;52.516;13.318;2023-03-01T02:40:58;23.37;;;14.03;;
22184;SDS011;11258;52.516;13.318;2023-03-01T02:43:27;24.63;;;14.23;;
22184;SDS011;11258;52.516;13.318;2023-03-01T02:46:02;27.03;;;13.97;;
22184;SDS011;11258;52.516;13.318;2023-03-01T02:48:43;33.17;;;16.80;;
22184;SDS011;11258;52.516;13.318;2023-03-01T02:51:18;32.83;;;17.53;;
22184;SDS011;11258;52.516;13.318;2023-03-01T02:53:56;30.60;;;15.83;;
22184;SDS011;11258;52.516;13.318;2023-03-01T02:56:44;29.47;;;16.33;;
22184;SDS011;11258;52.516;13.318;2023-03-01T02:59:14;29.27;;;15.97;;
22184;SDS011;11258;52.516;13.318;2023-03-01T03:01:45;31.07;;;15.27;;
22184;SDS011;11258;52.516;13.318;2023-03-01T03:04:13;24.90;;;15.67;;
22184;SDS011;11258;52.516;13.318;2023-03-01T03:06:42;25.30;;;14.87;;
22184;SDS011;11258;52.516;13.318;2023-03-01T03:09:09;26.73;;;15.57;;
22184;SDS011;11258;52.516;13.318;2023-03-01T03:11:35;27.67;;;15.73;;
22184;SDS011;11258;52.516;13.318;2023-03-01T03:14:01;28.90;;;16.10;;
22184;SDS011;11258;52.516;13.318;2023-03-01T03:16:28;25.50;;;15.10;;
22184;SDS011;11258;52.516;13.318;2023-03-01T03:18:54;23.97;;;14.17;;
22184;SDS011;11258;52.516;13.318;2023-03-01T03:21:29;27.13;;;15.10;;
22184;SDS011;11258;52.516;13.318;2023-03-01T03:23:58;29.07;;;15.73;;
22184;SDS011;11258;52.516;13.318;2023-03-01T03:26:24;26.83;;;14.93;;
22184;SDS011;11258;52.516;13.318;2023-03-01T03:28:50;27.73;;;15.67;;
22184;SDS011;11258;52.516;13.318;2023-03-01T03:31:16;29.03;;;15.00;;
22184;SDS011;11258;52.516;13.318;2023-03-01T03:33:42;25.60;;;15.77;;
22184;SDS011;11258;52.516;13.318;2023-03-01T03:36:08;25.37;;;15.57;;
22184;SDS011;11258;52.516;13.318;2023-03-01T03:38:37;26.70;;;15.50;;
22184;SDS011;11258;52.516;13.318;2023-03-01T03:41:05;25.70;;;14.60;;
22184;SDS011;11258;52.516;13.318;2023-03-01T03:43:33;25.10;;;14.67;;
22184;SDS011;11258;52.516;13.318;2023-03-01T03:46:00;24.00;;;14.73;;
22184;SDS011;11258;52.516;13.318;2023-03-01T03:48:30;21.07;;;14.27;;
22184;SDS011;11258;52.516;13.318;2023-03-01T03:51:07;24.70;;;14.23;;
22184;SDS011;11258;52.516;13.318;2023-03-01T03:53:36;27.77;;;15.37;;
22184;SDS011;11258;52.516;13.318;2023-03-01T03:56:02;24.60;;;15.27;;
22184;SDS011;11258;52.516;13.318;2023-03-01T03:58:27;24.93;;;14.43;;
22184;SDS011;11258;52.516;13.318;2023-03-01T04:00:55;19.20;;;12.83;;
22184;SDS011;11258;52.516;13.318;2023-03-01T04:03:22;24.07;;;14.43;;
22184;SDS011;11258;52.516;13.318;2023-03-01T04:05:48;26.00;;;14.90;;
22184;SDS011;11258;52.516;13.318;2023-03-01T04:08:18;24.10;;;13.63;;
22184;SDS011;11258;52.516;13.318;2023-03-01T04:10:46;26.43;;;14.60;;
22184;SDS011;11258;52.516;13.318;2023-03-01T04:13:15;21.80;;;13.77;;
22184;SDS011;11258;52.516;13.318;2023-03-01T04:15:44;23.10;;;13.37;;
22184;SDS011;11258;52.516;13.318;2023-03-01T04:18:14;23.43;;;14.57;;
22184;SDS011;11258;52.516;13.318;2023-03-01T04:20:41;21.27;;;13.07;;
22184;SDS011;11258;52.516;13.318;2023-03-01T04:23:10;29.63;;;14.30;;
22184;SDS011;11258;52.516;13.318;2023-03-01T04:28:41;22.83;;;13.67;;
22184;SDS011;11258;52.516;13.318;2023-03-01T04:31:10;20.73;;;13.17;;
22184;SDS011;11258;52.516;13.318;2023-03-01T04:33:41;25.60;;;14.10;;
22184;SDS011;11258;52.516;13.318;2023-03-01T04:36:12;23.97;;;12.73;;
22184;SDS011;11258;52.516;13.318;2023-03-01T04:38:39;25.07;;;14.10;;
22184;SDS011;11258;52.516;13.318;2023-03-01T04:41:06;26.47;;;14.17;;
22184;SDS011;11258;52.516;13.318;2023-03-01T04:43:33;20.30;;;13.47;;
22184;SDS011;11258;52.516;13.318;2023-03-01T04:46:00;21.03;;;12.80;;
22184;SDS011;11258;52.516;13.318;2023-03-01T04:48:28;23.57;;;14.33;;
22184;SDS011;11258;52.516;13.318;2023-03-01T04:50:54;21.97;;;12.57;;
22184;SDS011;11258;52.516;13.318;2023-03-01T04:53:19;20.80;;;12.60;;
22184;SDS011;11258;52.516;13.318;2023-03-01T04:55:45;21.70;;;12.70;;
22184;SDS011;11258;52.516;13.318;2023-03-01T04:58:11;24.20;;;14.13;;
22184;SDS011;11258;52.516;13.318;2023-03-01T05:00:36;24.43;;;15.97;;
22184;SDS011;11258;52.516;13.318;2023-03-01T05:03:02;22.30;;;13.53;;
22184;SDS011;11258;52.516;13.318;2023-03-01T05:05:32;22.37;;;13.70;;
22184;SDS011;11258;52.516;13.318;2023-03-01T05:08:00;25.47;;;14.50;;
22184;SDS011;11258;52.516;13.318;2023-03-01T05:10:31;22.37;;;13.63;;
22184;SDS011;11258;52.516;13.318;2023-03-01T05:12:59;21.80;;;13.70;;
22184;SDS011;11258;52.516;13.318;2023-03-01T05:15:26;22.43;;;13.07;;
22184;SDS011;11258;52.516;13.318;2023-03-01T05:17:55;22.47;;;12.87;;
22184;SDS011;11258;52.516;13.318;2023-03-01T05:20:24;20.10;;;12.87;;
22184;SDS011;11258;52.516;13.318;2023-03-01T05:22:51;24.73;;;12.60;;
22184;SDS011;11258;52.516;13.318;2023-03-01T05:25:19;21.13;;;12.97;;
22184;SDS011;11258;52.516;13.318;2023-03-01T05:27:46;23.23;;;14.20;;
22184;SDS011;11258;52.516;13.318;2023-03-01T05:30:12;21.23;;;13.77;;
22184;SDS011;11258;52.516;13.318;2023-03-01T05:32:39;24.03;;;13.50;;
22184;SDS011;11258;52.516;13.318;2023-03-01T05:35:12;24.57;;;14.73;;
22184;SDS011;11258;52.516;13.318;2023-03-01T05:37:40;24.97;;;13.90;;
22184;SDS011;11258;52.516;13.318;2023-03-01T05:40:14;26.97;;;14.10;;
22184;SDS011;11258;52.516;13.318;2023-03-01T05:42:53;23.07;;;13.60;;
22184;SDS011;11258;52.516;13.318;2023-03-01T05:45:21;31.93;;;14.30;;
22184;SDS011;11258;52.516;13.318;2023-03-01T05:47:48;22.33;;;14.13;;
22184;SDS011;11258;52.516;13.318;2023-03-01T05:50:24;28.30;;;14.03;;
22184;SDS011;11258;52.516;13.318;2023-03-01T05:52:54;26.00;;;14.27;;
22184;SDS011;11258;52.516;13.318;2023-03-01T05:55:25;21.67;;;12.57;;
22184;SDS011;11258;52.516;13.318;2023-03-01T05:57:52;22.03;;;12.73;;
22184;SDS011;11258;52.516;13.318;2023-03-01T06:00:18;22.57;;;12.90;;
22184;SDS011;11258;52.516;13.318;2023-03-01T06:02:47;26.40;;;14.47;;
22184;SDS011;11258;52.516;13.318;2023-03-01T06:05:13;22.43;;;13.20;;
22184;SDS011;11258;52.516;13.318;2023-03-01T06:07:39;25.57;;;14.47;;
22184;SDS011;11258;52.516;13.318;2023-03-01T06:10:05;23.03;;;13.77;;
22184;SDS011;11258;52.516;13.318;2023-03-01T06:12:32;23.13;;;13.07;;
22184;SDS011;11258;52.516;13.318;2023-03-01T06:14:59;24.10;;;14.00;;
22184;SDS011;11258;52.516;13.318;2023-03-01T06:17:26;23.00;;;14.10;;
22184;SDS011;11258;52.516;13.318;2023-03-01T06:19:55;25.33;;;13.00;;
22184;SDS011;11258;52.516;13.318;2023-03-01T06:22:20;26.33;;;13.67;;
22184;SDS011;11258;52.516;13.318;2023-03-01T06:24:46;21.50;;;12.80;;
22184;SDS011;11258;52.516;13.318;2023-03-01T06:27:11;22.90;;;13.03;;
22184;SDS011;11258;52.516;13.318;2023-03-01T06:29:37;20.07;;;12.00;;
22184;SDS011;11258;52.516;13.318;2023-03-01T06:32:03;20.70;;;11.90;;
22184;SDS011;11258;52.516;13.318;2023-03-01T06:34:28;17.27;;;10.93;;
22184;SDS011;11258;52.516;13.318;2023-03-01T06:36:55;19.60;;;12.40;;
22184;SDS011;11258;52.516;13.318;2023-03-01T06:39:21;20.30;;;10.93;;
22184;SDS011;11258;52.516;13.318;2023-03-01T06:41:47;18.63;;;10.83;;
22184;SDS011;11258;52.516;13.318;2023-03-01T06:44:12;22.73;;;12.53;;
22184;SDS011;11258;52.516;13.318;2023-03-01T06:46:39;20.00;;;12.40;;
22184;SDS011;11258;52.516;13.318;2023-03-01T06:49:05;22.90;;;13.40;;
22184;SDS011;11258;52.516;13.318;2023-03-01T06:51:34;18.83;;;12.93;;
22184;SDS011;11258;52.516;13.318;2023-03-01T06:54:00;22.00;;;12.97;;
22184;SDS011;11258;52.516;13.318;2023-03-01T06:56:26;19.73;;;12.60;;
22184;SDS011;11258;52.516;13.318;2023-03-01T06:58:51;23.67;;;13.23;;
22184;SDS011;11258;52.516;13.318;2023-03-01T07:01:17;18.23;;;11.70;;
22184;SDS011;11258;52.516;13.318;2023-03-01T07:03:43;19.90;;;12.20;;
22184;SDS011;11258;52.516;13.318;2023-03-01T07:06:09;24.03;;;12.83;;
22184;SDS011;11258;52.516;13.318;2023-03-01T07:08:35;37.07;;;19.30;;
22184;SDS011;11258;52.516;13.318;2023-03-01T07:11:00;31.63;;;20.53;;
22184;SDS011;11258;52.516;13.318;2023-03-01T07:13:28;29.57;;;20.27;;
22184;SDS011;11258;52.516;13.318;2023-03-01T07:15:54;29.77;;;19.40;;
22184;SDS011;11258;52.516;13.318;2023-03-01T07:18:19;42.92;;;27.38;;
22184;SDS011;11258;52.516;13.318;2023-03-01T07:20:45;31.20;;;19.83;;
22184;SDS011;11258;52.516;13.318;2023-03-01T07:23:10;29.25;;;17.58;;
22184;SDS011;11258;52.516;13.318;2023-03-01T07:25:36;24.50;;;16.58;;
22184;SDS011;11258;52.516;13.318;2023-03-01T07:28:02;22.17;;;14.32;;
22184;SDS011;11258;52.516;13.318;2023-03-01T07:30:27;19.95;;;13.18;;
22184;SDS011;11258;52.516;13.318;2023-03-01T07:32:54;18.65;;;12.60;;
22184;SDS011;11258;52.516;13.318;2023-03-01T07:35:20;17.05;;;13.35;;
22184;SDS011;11258;52.516;13.318;2023-03-01T07:37:46;17.02;;;12.70;;
22184;SDS011;11258;52.516;13.318;2023-03-01T07:40:12;19.83;;;13.25;;
22184;SDS011;11258;52.516;13.318;2023-03-01T07:42:38;18.85;;;13.75;;
22184;SDS011;11258;52.516;13.318;2023-03-01T07:45:05;20.30;;;13.20;;
22184;SDS011;11258;52.516;13.318;2023-03-01T07:47:31;16.52;;;12.50;;
22184;SDS011;11258;52.516;13.318;2023-03-01T07:49:57;17.52;;;10.65;;
22184;SDS011;11258;52.516;13.318;2023-03-01T07:52:23;17.25;;;10.82;;
22184;SDS011;11258;52.516;13.318;2023-03-01T07:54:48;14.10;;;10.10;;
22184;SDS011;11258;52.516;13.318;2023-03-01T07:57:14;15.30;;;11.13;;
22184;SDS011;11258;52.516;13.318;2023-03-01T07:59:40;13.80;;;10.32;;
22184;SDS011;11258;52.516;13.318;2023-03-01T08:02:05;17.88;;;11.07;;
22184;SDS011;11258;52.516;13.318;2023-03-01T08:04:31;16.13;;;10.85;;
22184;SDS011;11258;52.516;13.318;2023-03-01T08:06:58;13.88;;;10.57;;
22184;SDS011;11258;52.516;13.318;2023-03-01T08:09:23;16.13;;;10.25;;
22184;SDS011;11258;52.516;13.318;2023-03-01T08:11:49;12.30;;;10.02;;
22184;SDS011;11258;52.516;13.318;2023-03-01T08:14:15;15.25;;;11.30;;
22184;SDS011;11258;52.516;13.318;2023-03-01T08:16:40;17.77;;;11.85;;
22184;SDS011;11258;52.516;13.318;2023-03-01T08:19:07;13.98;;;10.38;;
22184;SDS011;11258;52.516;13.318;2023-03-01T08:21:34;14.52;;;9.80;;
22184;SDS011;11258;52.516;13.318;2023-03-01T08:24:04;11.73;;;9.40;;
22184;SDS011;11258;52.516;13.318;2023-03-01T08:26:31;13.18;;;9.38;;
22184;SDS011;11258;52.516;13.318;2023-03-01T08:28:58;12.10;;;8.30;;
22184;SDS011;11258;52.516;13.318;2023-03-01T08:31:36;11.23;;;7.25;;
22184;SDS011;11258;52.516;13.318;2023-03-01T08:34:04;11.40;;;7.82;;
22184;SDS011;11258;52.516;13.318;2023-03-01T08:36:34;11.40;;;7.15;;
22184;SDS011;11258;52.516;13.318;2023-03-01T08:39:02;7.63;;;5.35;;
22184;SDS011;11258;52.516;13.318;2023-03-01T08:41:28;8.93;;;5.93;;
22184;SDS011;11258;52.516;13.318;2023-03-01T08:43:54;8.07;;;5.40;;
22184;SDS011;11258;52.516;13.318;2023-03-01T08:46:24;8.65;;;6.05;;
22184;SDS011;11258;52.516;13.318;2023-03-01T08:48:53;10.05;;;6.70;;
22184;SDS011;11258;52.516;13.318;2023-03-01T08:51:19;8.77;;;6.07;;
22184;SDS011;11258;52.516;13.318;2023-03-01T08:53:45;11.25;;;5.68;;
22184;SDS011;11258;52.516;13.318;2023-03-01T08:56:11;10.52;;;5.80;;
22184;SDS011;11258;52.516;13.318;2023-03-01T08:58:37;9.65;;;5.30;;
22184;SDS011;11258;52.516;13.318;2023-03-01T09:01:08;10.60;;;6.37;;
22184;SDS011;11258;52.516;13.318;2023-03-01T09:03:35;13.57;;;6.57;;
22184;SDS011;11258;52.516;13.318;2023-03-01T09:06:01;9.60;;;6.40;;
22184;SDS011;11258;52.516;13.318;2023-03-01T09:08:28;13.17;;;6.63;;
22184;SDS011;11258;52.516;13.318;2023-03-01T09:10:54;9.40;;;6.73;;
22184;SDS011;11258;52.516;13.318;2023-03-01T09:13:20;9.47;;;5.83;;
22184;SDS011;11258;52.516;13.318;2023-03-01T09:15:48;9.13;;;6.40;;
22184;SDS011;11258;52.516;13.318;2023-03-01T09:18:14;10.13;;;6.77;;
22184;SDS011;11258;52.516;13.318;2023-03-01T09:20:39;9.87;;;6.37;;
22184;SDS011;11258;52.516;13.318;2023-03-01T09:23:05;6.93;;;5.20;;
22184;SDS011;11258;52.516;13.318;2023-03-01T09:25:31;9.37;;;5.57;;
22184;SDS011;11258;52.516;13.318;2023-03-01T09:27:58;8.70;;;5.37;;
22184;SDS011;11258;52.516;13.318;2023-03-01T09:30:24;8.27;;;5.20;;
22184;SDS011;11258;52.516;13.318;2023-03-01T09:32:49;10.00;;;5.50;;
22184;SDS011;11258;52.516;13.318;2023-03-01T09:35:15;8.63;;;4.83;;
22184;SDS011;11258;52.516;13.318;2023-03-01T09:37:41;7.13;;;5.07;;
22184;SDS011;11258;52.516;13.318;2023-03-01T09:40:13;6.33;;;4.67;;
22184;SDS011;11258;52.516;13.318;2023-03-01T09:43:02;9.23;;;4.70;;
22184;SDS011;11258;52.516;13.318;2023-03-01T09:45:38;10.43;;;5.30;;
22184;SDS011;11258;52.516;13.318;2023-03-01T09:48:11;6.73;;;5.20;;
22184;SDS011;11258;52.516;13.318;2023-03-01T09:50:41;8.70;;;4.90;;
22184;SDS011;11258;52.516;13.318;2023-03-01T09:53:21;8.00;;;5.17;;
22184;SDS011;11258;52.516;13.318;2023-03-01T09:56:02;7.57;;;4.03;;
22184;SDS011;11258;52.516;13.318;2023-03-01T10:01:43;7.13;;;3.70;;
22184;SDS011;11258;52.516;13.318;2023-03-01T10:04:27;8.17;;;3.97;;
22184;SDS011;11258;52.516;13.318;2023-03-01T10:10:04;5.90;;;3.77;;
22184;SDS011;11258;52.516;13.318;2023-03-01T10:12:37;4.83;;;2.73;;
22184;SDS011;11258;52.516;13.318;2023-03-01T10:15:19;4.47;;;2.70;;
22184;SDS011;11258;52.516;13.318;2023-03-01T10:17:57;6.43;;;3.20;;
22184;SDS011;11258;52.516;13.318;2023-03-01T10:23:08;7.53;;;4.07;;
22184;SDS011;11258;52.516;13.318;2023-03-01T10:28:25;8.83;;;4.73;;
22184;SDS011;11258;52.516;13.318;2023-03-01T10:30:56;10.13;;;4.73;;
22184;SDS011;11258;52.516;13.318;2023-03-01T10:33:24;8.10;;;4.27;;
22184;SDS011;11258;52.516;13.318;2023-03-01T10:35:56;10.73;;;4.87;;
22184;SDS011;11258;52.516;13.318;2023-03-01T10:38:22;9.97;;;4.73;;
22184;SDS011;11258;52.516;13.318;2023-03-01T10:43:46;9.43;;;5.60;;
22184;SDS011;11258;52.516;13.318;2023-03-01T10:46:24;10.93;;;5.53;;
22184;SDS011;11258;52.516;13.318;2023-03-01T10:51:33;7.87;;;4.90;;
22184;SDS011;11258;52.516;13.318;2023-03-01T10:53:58;6.60;;;4.53;;
22184;SDS011;11258;52.516;13.318;2023-03-01T10:56:24;7.50;;;4.67;;
22184;SDS011;11258;52.516;13.318;2023-03-01T10:59:00;13.87;;;5.10;;
22184;SDS011;11258;52.516;13.318;2023-03-01T11:01:36;13.30;;;5.03;;
22184;SDS011;11258;52.516;13.318;2023-03-01T11:04:08;6.63;;;4.60;;
22184;SDS011;11258;52.516;13.318;2023-03-01T11:06:37;8.03;;;4.33;;
22184;SDS011;11258;52.516;13.318;2023-03-01T11:09:23;6.10;;;4.03;;
22184;SDS011;11258;52.516;13.318;2023-03-01T11:11:55;5.53;;;4.17;;
22184;SDS011;11258;52.516;13.318;2023-03-01T11:14:24;7.67;;;4.70;;
22184;SDS011;11258;52.516;13.318;2023-03-01T11:19:40;6.50;;;3.80;;
22184;SDS011;11258;52.516;13.318;2023-03-01T11:22:12;12.00;;;4.77;;
22184;SDS011;11258;52.516;13.318;2023-03-01T11:24:52;9.07;;;4.07;;
22184;SDS011;11258;52.516;13.318;2023-03-01T11:27:24;7.90;;;3.80;;
22184;SDS011;11258;52.516;13.318;2023-03-01T11:30:02;8.73;;;4.10;;
22184;SDS011;11258;52.516;13.318;2023-03-01T11:32:40;6.37;;;4.27;;
22184;SDS011;11258;52.516;13.318;2023-03-01T11:35:29;6.83;;;3.63;;
22184;SDS011;11258;52.516;13.318;2023-03-01T11:40:32;5.57;;;3.27;;
22184;SDS011;11258;52.516;13.318;2023-03-01T11:43:15;6.63;;;4.20;;
22184;SDS011;11258;52.516;13.318;2023-03-01T11:48:44;8.30;;;4.17;;
22184;SDS011;11258;52.516;13.318;2023-03-01T11:51:24;6.20;;;3.90;;
22184;SDS011;11258;52.516;13.318;2023-03-01T11:54:01;7.27;;;3.87;;
22184;SDS011;11258;52.516;13.318;2023-03-01T11:56:34;6.70;;;3.90;;
22184;SDS011;11258;52.516;13.318;2023-03-01T12:01:38;6.03;;;3.40;;
22184;SDS011;11258;52.516;13.318;2023-03-01T12:04:24;8.23;;;3.63;;
22184;SDS011;11258;52.516;13.318;2023-03-01T12:07:00;6.97;;;3.13;;
22184;SDS011;11258;52.516;13.318;2023-03-01T12:12:45;9.13;;;3.57;;
22184;SDS011;11258;52.516;13.318;2023-03-01T12:26:47;6.67;;;3.60;;
22184;SDS011;11258;52.516;13.318;2023-03-01T12:43:10;8.10;;;3.30;;
22184;SDS011;11258;52.516;13.318;2023-03-01T12:46:14;6.47;;;3.10;;
22184;SDS011;11258;52.516;13.318;2023-03-01T12:51:38;7.70;;;3.80;;
22184;SDS011;11258;52.516;13.318;2023-03-01T12:54:07;6.20;;;3.23;;
22184;SDS011;11258;52.516;13.318;2023-03-01T12:56:40;4.77;;;3.27;;
22184;SDS011;11258;52.516;13.318;2023-03-01T13:02:37;9.80;;;3.30;;
22184;SDS011;11258;52.516;13.318;2023-03-01T13:05:30;5.60;;;3.07;;
22184;SDS011;11258;52.516;13.318;2023-03-01T13:10:51;6.30;;;2.90;;
22184;SDS011;11258;52.516;13.318;2023-03-01T13:13:25;4.50;;;2.50;;
22184;SDS011;11258;52.516;13.318;2023-03-01T13:15:52;6.03;;;2.73;;
22184;SDS011;11258;52.516;13.318;2023-03-01T13:20:48;4.00;;;2.70;;
22184;SDS011;11258;52.516;13.318;2023-03-01T13:26:18;4.40;;;3.10;;
22184;SDS011;11258;52.516;13.318;2023-03-01T13:31:56;4.03;;;2.50;;
22184;SDS011;11258;52.516;13.318;2023-03-01T13:33:59;4.50;;;2.73;;
22184;SDS011;11258;52.516;13.318;2023-03-01T13:38:55;4.00;;;2.57;;
22184;SDS011;11258;52.516;13.318;2023-03-01T13:49:55;4.60;;;2.70;;
22184;SDS011;11258;52.516;13.318;2023-03-01T13:54:50;6.67;;;2.90;;
22184;SDS011;11258;52.516;13.318;2023-03-01T13:57:19;6.83;;;3.00;;
22184;SDS011;11258;52.516;13.318;2023-03-01T13:59:49;6.23;;;2.60;;
22184;SDS011;11258;52.516;13.318;2023-03-01T14:02:14;4.80;;;2.40;;
22184;SDS011;11258;52.516;13.318;2023-03-01T14:04:41;6.17;;;2.47;;
22184;SDS011;11258;52.516;13.318;2023-03-01T14:07:11;3.77;;;2.40;;
22184;SDS011;11258;52.516;13.318;2023-03-01T14:09:45;5.60;;;2.50;;
22184;SDS011;11258;52.516;13.318;2023-03-01T14:15:13;6.67;;;2.50;;
22184;SDS011;11258;52.516;13.318;2023-03-01T14:18:08;5.33;;;2.53;;
22184;SDS011;11258;52.516;13.318;2023-03-01T14:20:39;5.60;;;3.07;;
22184;SDS011;11258;52.516;13.318;2023-03-01T14:23:11;5.37;;;2.90;;
22184;SDS011;11258;52.516;13.318;2023-03-01T14:25:45;5.83;;;3.00;;
22184;SDS011;11258;52.516;13.318;2023-03-01T14:28:29;4.73;;;2.57;;
22184;SDS011;11258;52.516;13.318;2023-03-01T14:30:58;3.70;;;2.50;;
22184;SDS011;11258;52.516;13.318;2023-03-01T14:36:07;2.83;;;1.90;;
22184;SDS011;11258;52.516;13.318;2023-03-01T14:38:35;3.17;;;2.23;;
22184;SDS011;11258;52.516;13.318;2023-03-01T14:41:09;4.13;;;2.00;;
22184;SDS011;11258;52.516;13.318;2023-03-01T14:43:38;3.07;;;1.80;;
22184;SDS011;11258;52.516;13.318;2023-03-01T14:46:16;3.83;;;2.07;;
22184;SDS011;11258;52.516;13.318;2023-03-01T14:48:54;3.60;;;2.13;;
22184;SDS011;11258;52.516;13.318;2023-03-01T14:51:23;3.97;;;2.30;;
22184;SDS011;11258;52.516;13.318;2023-03-01T14:53:49;4.30;;;2.03;;
22184;SDS011;11258;52.516;13.318;2023-03-01T14:56:16;3.07;;;1.77;;
22184;SDS011;11258;52.516;13.318;2023-03-01T14:58:45;4.87;;;1.60;;
22184;SDS011;11258;52.516;13.318;2023-03-01T15:01:15;4.27;;;1.80;;
22184;SDS011;11258;52.516;13.318;2023-03-01T15:03:43;4.87;;;2.03;;
22184;SDS011;11258;52.516;13.318;2023-03-01T15:06:18;3.13;;;1.70;;
22184;SDS011;11258;52.516;13.318;2023-03-01T15:08:49;3.17;;;2.10;;
22184;SDS011;11258;52.516;13.318;2023-03-01T15:11:21;3.67;;;2.00;;
22184;SDS011;11258;52.516;13.318;2023-03-01T15:13:52;3.77;;;2.17;;
22184;SDS011;11258;52.516;13.318;2023-03-01T15:16:19;3.73;;;2.20;;
22184;SDS011;11258;52.516;13.318;2023-03-01T15:18:52;3.90;;;1.87;;
22184;SDS011;11258;52.516;13.318;2023-03-01T15:21:22;3.33;;;1.80;;
22184;SDS011;11258;52.516;13.318;2023-03-01T15:23:53;5.87;;;1.80;;
22184;SDS011;11258;52.516;13.318;2023-03-01T15:26:26;5.60;;;2.55;;
22184;SDS011;11258;52.516;13.318;2023-03-01T15:28:56;3.70;;;1.63;;
22184;SDS011;11258;52.516;13.318;2023-03-01T15:31:24;5.00;;;1.97;;
22184;SDS011;11258;52.516;13.318;2023-03-01T15:34:06;2.57;;;1.63;;
22184;SDS011;11258;52.516;13.318;2023-03-01T15:36:47;4.73;;;2.00;;
22184;SDS011;11258;52.516;13.318;2023-03-01T15:42:02;3.20;;;2.00;;
22184;SDS011;11258;52.516;13.318;2023-03-01T15:44:31;4.10;;;2.40;;
22184;SDS011;11258;52.516;13.318;2023-03-01T15:46:59;3.33;;;1.87;;
22184;SDS011;11258;52.516;13.318;2023-03-01T15:52:12;5.53;;;1.90;;
22184;SDS011;11258;52.516;13.318;2023-03-01T15:54:43;5.90;;;2.50;;
22184;SDS011;11258;52.516;13.318;2023-03-01T15:57:13;5.80;;;1.93;;
22184;SDS011;11258;52.516;13.318;2023-03-01T15:59:39;3.77;;;1.87;;
22184;SDS011;11258;52.516;13.318;2023-03-01T16:02:10;5.50;;;2.30;;
22184;SDS011;11258;52.516;13.318;2023-03-01T16:04:37;2.93;;;1.90;;
22184;SDS011;11258;52.516;13.318;2023-03-01T16:07:03;3.83;;;1.83;;
22184;SDS011;11258;52.516;13.318;2023-03-01T16:09:29;4.03;;;1.97;;
22184;SDS011;11258;52.516;13.318;2023-03-01T16:11:55;3.90;;;1.93;;
22184;SDS011;11258;52.516;13.318;2023-03-01T16:14:20;7.60;;;2.50;;
22184;SDS011;11258;52.516;13.318;2023-03-01T16:16:46;4.67;;;2.13;;
22184;SDS011;11258;52.516;13.318;2023-03-01T16:19:13;3.53;;;2.07;;
22184;SDS011;11258;52.516;13.318;2023-03-01T16:21:39;5.17;;;2.20;;
22184;SDS011;11258;52.516;13.318;2023-03-01T16:24:05;6.03;;;2.43;;